Time;durP1;ratioP1;P1;durP2;ratioP2;P2;SDS_P1;SDS_P2;PMS_P1;PMS_P2;Temp;Humidity;BMP_temperature;BMP_pressure;BME280_temperature;BME280_humidity;BME280_pressure;Samples;Min_cycle;Max_cycle;Signal;HPM_P1;HPM_P2
2023/04/03 00:01:11;;;;;;;2.25;1.27;;;;;;;16.32;43.38;95644.44;5049939;28;20051;-30
2023/04/03 00:03:37;;;;;;;4.63;1.10;;;;;;;16.22;43.66;95626.69;5047535;28;20024;-30
2023/04/03 00:06:03;;;;;;;3.00;1.13;;;;;;;16.24;43.77;95628.94;5050119;28;20025;-32
2023/04/03 00:08:32;;;;;;;4.72;1.10;;;;;;;16.21;43.57;95629.91;5049281;28;20036;-30
2023/04/03 00:10:58;;;;;;;2.42;0.93;;;;;;;16.22;43.50;95631.41;5049259;28;20022;-30
2023/04/03 00:13:24;;;;;;;1.75;1.20;;;;;;;16.34;43.47;95625.56;5050080;28;20036;-32
2023/04/03 00:15:50;;;;;;;4.30;1.45;;;;;;;16.08;43.80;95630.28;5047892;28;20031;-30
2023/04/03 00:18:16;;;;;;;2.38;0.90;;;;;;;16.19;43.34;95621.44;5049990;28;20108;-30
2023/04/03 00:20:41;;;;;;;1.10;0.68;;;;;;;16.24;43.35;95629.69;5049684;28;20373;-31
2023/04/03 00:23:07;;;;;;;1.27;0.70;;;;;;;16.09;43.68;95621.59;5041486;28;20021;-30
2023/04/03 00:25:33;;;;;;;1.73;0.70;;;;;;;16.01;43.88;95631.47;5049960;28;20017;-30
2023/04/03 00:27:58;;;;;;;1.27;0.65;;;;;;;16.10;43.80;95631.28;5048545;28;20036;-30
2023/04/03 00:30:24;;;;;;;1.88;0.80;;;;;;;16.12;43.51;95617.91;5046373;28;20044;-30
2023/04/03 00:32:51;;;;;;;2.55;0.90;;;;;;;16.02;44.03;95630.22;5046269;28;20031;-30
2023/04/03 00:35:19;;;;;;;2.70;0.90;;;;;;;15.98;43.85;95624.22;5048148;28;20030;-29
2023/04/03 00:37:45;;;;;;;1.45;0.70;;;;;;;16.11;43.77;95626.56;5049612;28;20095;-30
2023/04/03 00:40:13;;;;;;;1.13;0.70;;;;;;;16.27;43.66;95622.50;5040811;28;20381;-30
2023/04/03 00:42:40;;;;;;;2.13;0.95;;;;;;;16.24;43.40;95620.75;5048470;28;20105;-30
2023/04/03 00:45:05;;;;;;;1.48;0.80;;;;;;;16.04;44.08;95610.59;5033498;28;20113;-31
2023/04/03 00:47:31;;;;;;;5.10;1.02;;;;;;;16.09;43.96;95612.63;5048596;28;20104;-29
2023/04/03 00:49:58;;;;;;;2.92;0.90;;;;;;;16.16;43.87;95604.75;5049456;28;20025;-32
2023/04/03 00:52:29;;;;;;;4.20;1.00;;;;;;;16.10;44.01;95608.66;5048140;28;20024;-30
2023/04/03 00:55:00;;;;;;;2.28;0.80;;;;;;;16.10;44.24;95606.69;5049229;28;20050;-30
2023/04/03 00:57:27;;;;;;;1.70;0.90;;;;;;;15.92;44.32;95604.28;5047754;28;20031;-30
2023/04/03 00:59:57;;;;;;;3.15;0.90;;;;;;;15.92;44.41;95606.25;5042543;28;20393;-31
2023/04/03 01:02:23;;;;;;;2.42;0.80;;;;;;;16.08;44.24;95592.72;5048840;28;20063;-31
2023/04/03 01:04:49;;;;;;;3.83;0.77;;;;;;;16.31;43.52;95601.16;5049998;28;20057;-30
2023/04/03 01:07:20;;;;;;;2.95;0.73;;;;;;;16.07;44.16;95602.16;5053210;28;20017;-30
2023/04/03 01:09:48;;;;;;;3.20;0.73;;;;;;;16.05;44.26;95607.41;5051468;28;20108;-30
2023/04/03 01:12:20;;;;;;;4.22;1.00;;;;;;;16.10;44.12;95606.69;5053053;28;20537;-30
2023/04/03 01:14:48;;;;;;;2.65;1.20;;;;;;;16.14;44.31;95609.97;5051448;28;20469;-31
2023/04/03 01:17:39;;;;;;;4.03;1.33;;;;;;;16.19;44.35;95600.31;5052924;28;20416;-30
2023/04/03 01:20:32;;;;;;;3.22;0.98;;;;;;;15.99;44.53;95597.63;5051985;28;20026;-30
2023/04/03 01:23:24;;;;;;;1.88;1.08;;;;;;;16.01;44.75;95598.63;5043828;28;20029;-30
2023/04/03 01:25:56;;;;;;;2.75;0.95;;;;;;;16.20;44.32;95598.31;5051637;28;20021;-30
2023/04/03 01:28:31;;;;;;;1.38;0.80;;;;;;;16.12;44.71;95600.72;5039073;28;20029;-30
2023/04/03 01:31:20;;;;;;;3.67;0.80;;;;;;;15.86;45.09;95592.50;5051230;28;20025;-30
2023/04/03 01:33:46;;;;;;;2.35;0.85;;;;;;;16.01;44.87;95595.91;5044473;28;20021;-30
2023/04/03 01:36:17;;;;;;;1.65;0.90;;;;;;;15.88;45.03;95592.03;5050928;28;20024;-30
2023/04/03 01:38:42;;;;;;;1.50;0.90;;;;;;;15.88;44.93;95592.78;5052670;28;20048;-30
2023/04/03 01:41:07;;;;;;;2.58;0.80;;;;;;;15.90;44.94;95584.09;5043831;28;20021;-33
2023/04/03 01:43:33;;;;;;;1.92;0.75;;;;;;;16.07;44.76;95582.31;5051932;28;20029;-30
2023/04/03 01:45:58;;;;;;;3.20;0.90;;;;;;;16.16;44.54;95584.88;5051039;28;20053;-32
2023/04/03 01:48:24;;;;;;;3.13;0.85;;;;;;;16.04;44.43;95586.00;5050625;28;20021;-30
2023/04/03 01:50:49;;;;;;;1.95;0.70;;;;;;;16.11;44.40;95580.84;5052260;28;20017;-30
2023/04/03 01:53:15;;;;;;;3.83;0.80;;;;;;;15.94;44.57;95585.41;5051568;28;20450;-30
2023/04/03 01:55:40;;;;;;;3.60;0.80;;;;;;;16.11;44.27;95575.34;5044674;28;20457;-32
2023/04/03 01:58:06;;;;;;;2.25;0.82;;;;;;;16.11;44.17;95586.31;5046437;28;20049;-30
2023/04/03 02:00:31;;;;;;;1.30;0.70;;;;;;;16.12;43.87;95578.84;5048453;28;20404;-30
2023/04/03 02:02:57;;;;;;;1.63;0.85;;;;;;;16.00;44.50;95585.44;5052096;28;20487;-30
2023/04/03 02:05:23;;;;;;;2.67;0.60;;;;;;;16.11;44.13;95572.63;5051835;28;20032;-31
2023/04/03 02:07:48;;;;;;;3.03;0.80;;;;;;;15.93;44.02;95566.75;5049467;28;20029;-30
2023/04/03 02:10:14;;;;;;;1.05;0.65;;;;;;;15.93;44.09;95572.22;5052233;28;20449;-30
2023/04/03 02:12:40;;;;;;;0.90;0.50;;;;;;;16.09;43.87;95572.34;5048677;28;20039;-30
2023/04/03 02:15:06;;;;;;;2.42;0.60;;;;;;;15.97;43.94;95578.19;5051626;28;20484;-30
2023/04/03 02:17:31;;;;;;;2.45;0.75;;;;;;;16.04;43.78;95564.88;5051401;28;20029;-30
2023/04/03 02:19:57;;;;;;;1.95;0.80;;;;;;;16.05;43.82;95563.63;5050116;28;20029;-29
2023/04/03 02:22:22;;;;;;;1.38;1.13;;;;;;;16.04;43.71;95553.16;5044618;28;20099;-29
2023/04/03 02:24:48;;;;;;;1.38;0.60;;;;;;;15.87;44.33;95553.00;5047693;28;20024;-30
2023/04/03 02:27:14;;;;;;;1.63;0.82;;;;;;;16.04;43.43;95548.44;5050315;28;20013;-30
2023/04/03 02:29:40;;;;;;;1.13;0.80;;;;;;;16.02;43.50;95553.66;5051208;28;20464;-31
2023/04/03 02:32:05;;;;;;;0.80;0.52;;;;;;;15.92;43.65;95538.66;5050215;28;20126;-32
2023/04/03 02:34:31;;;;;;;1.15;0.63;;;;;;;15.89;43.77;95545.06;5051263;28;20021;-30
2023/04/03 02:36:56;;;;;;;1.58;0.80;;;;;;;15.98;43.52;95542.16;5051386;28;20057;-30
2023/04/03 02:39:22;;;;;;;2.90;0.65;;;;;;;16.07;43.76;95554.94;5048108;28;20029;-31
2023/04/03 02:41:48;;;;;;;1.52;0.70;;;;;;;16.04;44.14;95555.91;5046254;28;20033;-30
2023/04/03 02:44:13;;;;;;;1.48;0.50;;;;;;;15.95;44.05;95551.31;5049662;28;20020;-31
2023/04/03 02:46:38;;;;;;;1.30;0.80;;;;;;;15.98;44.04;95555.84;5044298;28;20033;-29
2023/04/03 02:49:04;;;;;;;1.90;0.80;;;;;;;16.10;43.77;95557.44;5051543;28;20021;-30
2023/04/03 02:51:30;;;;;;;1.63;0.50;;;;;;;15.91;44.42;95558.25;5049979;28;20033;-29
2023/04/03 02:53:55;;;;;;;2.17;0.95;;;;;;;15.92;44.31;95557.78;5040885;28;20107;-30
2023/04/03 02:56:21;;;;;;;4.20;0.95;;;;;;;15.90;44.18;95564.97;5049542;28;20044;-30
2023/04/03 02:58:46;;;;;;;2.90;0.73;;;;;;;16.09;43.59;95564.16;5042186;28;20086;-30
2023/04/03 03:01:12;;;;;;;4.25;0.70;;;;;;;15.90;44.29;95552.03;5050710;28;20041;-30
2023/04/03 03:03:37;;;;;;;2.50;0.80;;;;;;;15.91;44.21;95547.31;5049526;28;20037;-30
2023/04/03 03:06:15;;;;;;;1.50;0.70;;;;;;;16.03;43.96;95548.94;5051096;28;20056;-30
2023/04/03 03:08:41;;;;;;;1.88;0.88;;;;;;;16.07;44.08;95539.25;5049142;28;20033;-30
2023/04/03 03:11:07;;;;;;;1.35;1.00;;;;;;;15.89;44.70;95534.13;5050882;28;20518;-29
2023/04/03 03:13:33;;;;;;;2.78;0.80;;;;;;;15.78;44.50;95534.03;5050900;28;20457;-30
2023/04/03 03:15:59;;;;;;;5.65;0.80;;;;;;;15.99;44.11;95538.19;5049199;28;20045;-32
2023/04/03 03:18:24;;;;;;;3.83;0.80;;;;;;;16.14;43.99;95533.38;5050672;28;20028;-30
2023/04/03 03:20:57;;;;;;;1.30;0.70;;;;;;;16.03;44.16;95527.81;5048917;28;20108;-30
2023/04/03 03:23:25;;;;;;;1.65;0.88;;;;;;;16.11;43.99;95531.59;5044727;28;20396;-31
2023/04/03 03:25:59;;;;;;;1.35;0.68;;;;;;;16.07;43.95;95533.06;5049559;28;20029;-30
2023/04/03 03:28:25;;;;;;;4.65;0.70;;;;;;;15.96;44.02;95541.91;5036217;28;20029;-30
2023/04/03 03:30:50;;;;;;;1.08;0.80;;;;;;;15.89;44.18;95528.66;5050576;28;20488;-30
2023/04/03 03:33:17;;;;;;;2.47;0.80;;;;;;;15.88;44.39;95535.38;5049236;28;20112;-30
2023/04/03 03:35:43;;;;;;;1.42;1.00;;;;;;;15.99;44.00;95531.97;5050385;28;20036;-30
2023/04/03 03:38:09;;;;;;;1.58;0.60;;;;;;;15.99;44.20;95540.19;5048771;28;20021;-30
2023/04/03 03:40:35;;;;;;;3.90;0.65;;;;;;;15.95;44.26;95523.97;5041997;28;20098;-31
2023/04/03 03:43:00;;;;;;;1.95;0.80;;;;;;;15.93;44.42;95528.47;5049175;28;20029;-31
2023/04/03 03:45:26;;;;;;;1.73;0.65;;;;;;;15.98;44.07;95530.47;5047124;28;20076;-32
2023/04/03 03:47:51;;;;;;;1.15;0.77;;;;;;;16.01;44.25;95530.28;5050416;28;20021;-30
2023/04/03 03:50:17;;;;;;;2.40;0.70;;;;;;;16.05;44.19;95519.88;5048436;28;20107;-30
2023/04/03 03:52:43;;;;;;;3.03;1.23;;;;;;;15.89;44.52;95520.47;5050350;28;20135;-30
2023/04/03 03:55:08;;;;;;;3.05;0.75;;;;;;;15.89;44.49;95517.72;5050093;28;20051;-31
2023/04/03 03:57:34;;;;;;;2.72;1.42;;;;;;;16.00;44.87;95506.88;5047312;28;20036;-30
2023/04/03 03:59:59;;;;;;;4.90;0.90;;;;;;;15.96;44.73;95522.00;5043869;28;20095;-30
2023/04/03 04:02:25;;;;;;;2.55;0.90;;;;;;;15.97;44.93;95507.09;5049181;28;20427;-29
2023/04/03 04:04:50;;;;;;;0.98;0.68;;;;;;;15.97;44.79;95512.56;5042555;28;20013;-29
2023/04/03 04:07:16;;;;;;;1.90;0.68;;;;;;;15.95;44.78;95518.50;5050116;28;20013;-30
2023/04/03 04:09:41;;;;;;;1.80;0.70;;;;;;;15.86;45.18;95504.25;5048427;28;20071;-31
2023/04/03 04:12:07;;;;;;;2.30;0.80;;;;;;;15.85;45.17;95503.50;5050106;28;20464;-29
2023/04/03 04:14:32;;;;;;;2.40;0.80;;;;;;;15.93;44.79;95506.59;5049856;28;20079;-30
2023/04/03 04:16:57;;;;;;;3.83;0.88;;;;;;;15.92;45.44;95505.84;5048579;28;20029;-30
2023/04/03 04:19:23;;;;;;;2.17;0.88;;;;;;;15.85;45.41;95506.25;5049875;28;20476;-31
2023/04/03 04:21:49;;;;;;;2.10;1.13;;;;;;;16.01;45.00;95504.91;5040736;28;20029;-29
2023/04/03 04:24:15;;;;;;;2.75;1.10;;;;;;;15.81;45.45;95505.72;5035841;28;20024;-30
2023/04/03 04:26:40;;;;;;;2.58;0.75;;;;;;;15.63;45.86;95500.56;5049554;28;20017;-30
2023/04/03 04:29:05;;;;;;;0.80;0.68;;;;;;;15.84;45.51;95510.22;5048382;28;20060;-30
2023/04/03 04:31:31;;;;;;;3.75;0.93;;;;;;;15.74;45.69;95512.34;5049621;28;20102;-30
2023/04/03 04:33:56;;;;;;;3.58;0.80;;;;;;;16.00;45.28;95511.59;5044806;28;20025;-31
2023/04/03 04:36:22;;;;;;;1.73;0.82;;;;;;;15.86;45.46;95510.47;5048932;28;20021;-31
2023/04/03 04:38:47;;;;;;;3.42;0.80;;;;;;;15.98;45.37;95506.63;5048715;28;20024;-29
2023/04/03 04:41:13;;;;;;;1.83;0.80;;;;;;;15.96;45.05;95511.06;5044072;28;20107;-30
2023/04/03 04:43:38;;;;;;;2.97;1.10;;;;;;;15.87;45.41;95511.22;5053308;28;20036;-30
2023/04/03 04:46:10;;;;;;;2.42;0.95;;;;;;;15.95;45.06;95518.50;5053493;28;20349;-30
2023/04/03 04:48:36;;;;;;;1.58;0.88;;;;;;;15.76;45.64;95514.63;5052573;28;20021;-30
2023/04/03 04:51:02;;;;;;;1.23;0.85;;;;;;;15.84;45.37;95506.72;5053185;28;20082;-30
2023/04/03 04:53:27;;;;;;;3.00;0.95;;;;;;;15.80;45.42;95510.44;5051863;28;20033;-29
2023/04/03 04:55:53;;;;;;;3.22;1.10;;;;;;;15.88;45.25;95510.75;5045946;28;20021;-30
2023/04/03 04:58:19;;;;;;;1.25;0.85;;;;;;;15.80;45.26;95504.22;5039821;28;20075;-30
2023/04/03 05:00:45;;;;;;;2.45;0.70;;;;;;;15.96;45.10;95503.59;5051539;28;20045;-30
2023/04/03 05:03:11;;;;;;;2.53;0.68;;;;;;;16.02;44.95;95506.41;5047923;28;20148;-30
2023/04/03 05:05:37;;;;;;;1.60;0.70;;;;;;;15.88;45.49;95504.53;5049969;28;20538;-31
2023/04/03 05:08:03;;;;;;;2.17;0.75;;;;;;;15.69;45.69;95507.59;5052828;28;20388;-33
2023/04/03 05:10:28;;;;;;;1.83;0.90;;;;;;;15.61;46.16;95503.78;5053317;28;20108;-30
2023/04/03 05:12:54;;;;;;;7.55;1.20;;;;;;;15.75;45.80;95504.91;5051427;28;20148;-31
2023/04/03 05:15:20;;;;;;;1.65;0.60;;;;;;;15.73;45.75;95502.66;5053061;28;20029;-32
2023/04/03 05:17:45;;;;;;;3.28;1.00;;;;;;;15.68;46.08;95502.63;5051206;28;20029;-31
2023/04/03 05:20:12;;;;;;;2.00;0.70;;;;;;;15.80;45.77;95501.50;5052753;28;20021;-30
2023/04/03 05:22:37;;;;;;;1.92;0.95;;;;;;;15.74;45.91;95506.13;5045699;28;20025;-29
2023/04/03 05:25:03;;;;;;;1.73;1.00;;;;;;;15.91;45.75;95511.78;5050864;28;20033;-29
2023/04/03 05:27:29;;;;;;;3.13;1.30;;;;;;;15.70;45.87;95505.63;5052686;28;20043;-30
2023/04/03 05:29:55;;;;;;;4.13;1.52;;;;;;;15.85;45.92;95511.72;5051579;28;20021;-30
2023/04/03 05:32:22;;;;;;;2.25;1.00;;;;;;;15.86;46.19;95510.47;5052698;28;20104;-31
2023/04/03 05:34:48;;;;;;;4.60;1.10;;;;;;;15.85;45.97;95516.44;5052471;28;20473;-30
2023/04/03 05:37:13;;;;;;;3.08;0.82;;;;;;;15.80;46.15;95515.91;5050924;28;20032;-30
2023/04/03 05:39:40;;;;;;;2.92;0.73;;;;;;;15.74;46.42;95511.59;5052520;28;20460;-31
2023/04/03 05:42:07;;;;;;;2.90;1.10;;;;;;;15.88;46.17;95521.69;5051942;28;20388;-31
2023/04/03 05:44:32;;;;;;;3.90;1.42;;;;;;;15.90;45.91;95508.28;5049833;28;20075;-30
2023/04/03 05:46:58;;;;;;;3.25;0.88;;;;;;;15.92;45.62;95502.34;5047773;28;20021;-30
2023/04/03 05:49:24;;;;;;;1.30;0.73;;;;;;;15.79;46.52;95513.66;5050597;28;20385;-30
2023/04/03 05:51:51;;;;;;;4.50;0.85;;;;;;;15.95;45.74;95520.53;5051972;28;20025;-31
2023/04/03 05:54:23;;;;;;;2.40;0.80;;;;;;;15.69;46.33;95510.34;5051548;28;20388;-32
2023/04/03 05:56:49;;;;;;;1.07;0.87;;;;;;;15.98;45.59;95509.34;5038175;28;20017;-30
2023/04/03 05:59:16;;;;;;;2.83;0.70;;;;;;;16.01;45.61;95530.28;5043391;28;20115;-31
2023/04/03 06:01:41;;;;;;;1.77;0.60;;;;;;;15.90;45.49;95530.16;5050490;28;20050;-30
2023/04/03 06:04:08;;;;;;;2.05;0.60;;;;;;;15.86;45.53;95518.69;5045523;28;20040;-30
2023/04/03 06:07:03;;;;;;;0.95;0.55;;;;;;;15.86;45.63;95526.13;5050674;28;20017;-30
2023/04/03 06:09:29;;;;;;;1.15;0.55;;;;;;;15.99;45.45;95535.47;5044615;28;20139;-30
2023/04/03 06:11:55;;;;;;;3.38;0.70;;;;;;;15.86;45.46;95529.63;5050366;28;20114;-30
2023/04/03 06:14:21;;;;;;;2.35;0.50;;;;;;;15.92;45.50;95540.63;5051860;28;20028;-29
2023/04/03 06:16:47;;;;;;;2.53;0.70;;;;;;;15.77;45.72;95543.44;5050187;28;20029;-30
2023/04/03 06:19:12;;;;;;;2.10;0.60;;;;;;;15.94;45.71;95544.38;5051804;28;20017;-30
2023/04/03 06:21:38;;;;;;;1.50;0.63;;;;;;;16.11;45.35;95544.53;5045139;28;20044;-30
2023/04/03 06:24:05;;;;;;;1.08;0.60;;;;;;;15.94;45.97;95541.66;5050014;28;20033;-30
2023/04/03 06:26:31;;;;;;;2.60;0.60;;;;;;;15.93;45.80;95540.16;5051523;28;20472;-30
2023/04/03 06:28:56;;;;;;;2.15;0.70;;;;;;;16.09;45.45;95552.47;5043112;28;20052;-30
2023/04/03 06:31:22;;;;;;;1.85;0.52;;;;;;;15.92;45.77;95544.13;5051396;28;20025;-30
2023/04/03 06:33:47;;;;;;;2.50;1.08;;;;;;;15.90;45.60;95535.63;5051276;28;20509;-30
2023/04/03 06:36:13;;;;;;;1.42;0.57;;;;;;;15.99;45.40;95553.84;5049691;28;20100;-30
2023/04/03 06:38:38;;;;;;;1.25;0.40;;;;;;;15.92;45.93;95544.13;5048193;28;20378;-30
2023/04/03 06:41:04;;;;;;;2.00;0.50;;;;;;;16.01;45.68;95546.69;5047495;28;20028;-30
2023/04/03 06:43:31;;;;;;;1.45;0.60;;;;;;;16.05;45.77;95549.97;5050503;28;20039;-30
2023/04/03 06:45:57;;;;;;;2.53;0.70;;;;;;;16.17;44.93;95548.81;5051468;28;20009;-30
2023/04/03 06:48:22;;;;;;;3.00;0.50;;;;;;;15.93;45.53;95545.63;5050026;28;20116;-31
2023/04/03 06:50:48;;;;;;;4.68;0.70;;;;;;;16.07;45.04;95555.66;5051126;28;20021;-30
2023/04/03 06:53:13;;;;;;;1.50;0.50;;;;;;;15.98;45.03;95553.09;5050692;28;20024;-32
2023/04/03 06:55:39;;;;;;;2.92;0.40;;;;;;;15.88;45.17;95554.50;5049830;28;20018;-30
2023/04/03 06:58:05;;;;;;;2.83;0.47;;;;;;;16.04;44.96;95544.97;5045390;28;20041;-31
2023/04/03 07:00:31;;;;;;;3.03;0.47;;;;;;;16.05;45.00;95547.22;5047690;28;20052;-30
2023/04/03 07:02:57;;;;;;;2.20;0.47;;;;;;;15.91;45.07;95548.06;5036644;28;20040;-30
2023/04/03 07:05:24;;;;;;;2.08;0.90;;;;;;;15.98;44.85;95561.31;5047538;28;20116;-30
2023/04/03 07:07:51;;;;;;;2.90;0.57;;;;;;;16.08;45.19;95554.44;5049085;28;20025;-30
2023/04/03 07:10:17;;;;;;;2.63;0.75;;;;;;;16.10;45.09;95562.91;5050902;28;20021;-30
2023/04/03 07:12:42;;;;;;;2.22;0.50;;;;;;;16.33;44.40;95566.59;5049294;28;20024;-31
2023/04/03 07:15:09;;;;;;;1.13;0.40;;;;;;;16.09;45.00;95557.94;5050799;28;20023;-30
2023/04/03 07:17:35;;;;;;;2.45;0.68;;;;;;;16.33;44.57;95555.66;5049391;28;20025;-31
2023/04/03 07:20:01;;;;;;;2.97;0.80;;;;;;;16.14;44.33;95568.19;5048788;28;20036;-30
2023/04/03 07:22:28;;;;;;;3.60;0.70;;;;;;;15.92;44.71;95562.50;5043301;28;20025;-30
2023/04/03 07:24:53;;;;;;;1.08;0.32;;;;;;;16.20;44.56;95570.94;5049224;28;20031;-32
2023/04/03 07:27:19;;;;;;;6.53;0.57;;;;;;;16.38;44.24;95562.41;5050446;28;20478;-30
2023/04/03 07:29:45;;;;;;;3.05;0.60;;;;;;;16.21;44.77;95569.72;5050831;28;20516;-30
2023/04/03 07:32:10;;;;;;;1.50;0.40;;;;;;;16.10;44.07;95570.38;5048778;28;20030;-30
2023/04/03 07:34:36;;;;;;;2.17;0.47;;;;;;;16.27;44.15;95562.31;5050574;28;20029;-30
2023/04/03 07:37:02;;;;;;;3.22;0.60;;;;;;;16.40;44.19;95559.94;5049230;28;20472;-29
2023/04/03 07:39:28;;;;;;;3.40;0.52;;;;;;;16.14;44.33;95571.66;5046786;28;20025;-30
2023/04/03 07:41:55;;;;;;;6.13;0.82;;;;;;;16.18;44.00;95574.19;5045993;28;20021;-31
2023/04/03 07:44:21;;;;;;;4.85;1.08;;;;;;;16.32;43.38;95554.16;5048708;28;20469;-30
2023/04/03 07:46:46;;;;;;;2.17;0.70;;;;;;;16.31;43.41;95562.88;5050629;28;20021;-31
2023/04/03 07:49:12;;;;;;;3.17;0.70;;;;;;;16.42;43.54;95579.38;5049358;28;20017;-30
2023/04/03 07:51:37;;;;;;;3.03;0.70;;;;;;;16.38;42.74;95563.16;5048559;28;20025;-30
2023/04/03 07:54:04;;;;;;;2.63;0.70;;;;;;;16.33;42.68;95565.84;5050329;28;20020;-30
2023/04/03 07:56:29;;;;;;;2.05;0.55;;;;;;;16.55;42.63;95563.31;5048340;28;20024;-31
2023/04/03 07:58:55;;;;;;;3.80;0.77;;;;;;;16.38;43.04;95570.63;5050456;28;20475;-30
2023/04/03 08:01:20;;;;;;;2.58;0.50;;;;;;;16.51;42.04;95560.03;5049653;28;20524;-30
2023/04/03 08:03:46;;;;;;;3.00;0.60;;;;;;;16.62;41.36;95559.38;5041282;28;20037;-30
2023/04/03 08:06:13;;;;;;;5.63;0.70;;;;;;;16.57;42.06;95573.78;5049982;28;20045;-31
2023/04/03 08:08:39;;;;;;;2.90;0.60;;;;;;;16.59;41.54;95560.34;5047802;28;20456;-30
2023/04/03 08:11:05;;;;;;;10.13;1.30;;;;;;;16.61;41.19;95560.59;5050096;28;20036;-31
2023/04/03 08:13:31;;;;;;;2.95;0.70;;;;;;;16.76;40.98;95559.25;5049638;28;20484;-29
2023/04/03 08:15:58;;;;;;;5.10;0.70;;;;;;;16.52;41.25;95578.72;5050819;28;20116;-31
2023/04/03 08:18:25;;;;;;;2.17;0.43;;;;;;;16.72;40.55;95566.94;5048896;28;20080;-29
2023/04/03 08:20:51;;;;;;;4.10;0.60;;;;;;;16.80;40.53;95562.53;5051875;28;20029;-30
2023/04/03 08:23:18;;;;;;;2.03;0.63;;;;;;;16.63;40.57;95558.16;5045694;28;20389;-30
2023/04/03 08:25:44;;;;;;;2.20;0.60;;;;;;;16.77;40.90;95566.22;5052683;28;20013;-31
2023/04/03 08:28:11;;;;;;;4.22;0.60;;;;;;;16.59;40.95;95561.09;5048553;28;20031;-31
2023/04/03 08:30:40;;;;;;;4.68;0.73;;;;;;;16.62;40.99;95565.63;5054013;28;20455;-31
2023/04/03 08:33:06;;;;;;;3.95;0.70;;;;;;;16.70;40.65;95558.44;5052126;28;20021;-31
2023/04/03 08:35:31;;;;;;;2.92;0.70;;;;;;;16.96;40.70;95554.88;5053700;28;20031;-30
2023/04/03 08:37:57;;;;;;;1.50;0.60;;;;;;;16.73;41.31;95543.03;5046619;28;20060;-30
2023/04/03 08:40:23;;;;;;;2.25;0.50;;;;;;;16.93;40.76;95551.16;5044647;28;20036;-29
2023/04/03 08:43:03;;;;;;;4.22;0.80;;;;;;;16.73;41.06;95545.78;5053475;28;20021;-30
2023/04/03 08:45:53;;;;;;;2.63;0.73;;;;;;;17.00;40.84;95547.19;5052411;28;20033;-30
2023/04/03 08:48:23;;;;;;;6.85;1.65;;;;;;;16.96;41.16;95565.84;5051905;28;20036;-30
2023/04/03 08:50:53;;;;;;;3.85;0.90;;;;;;;16.97;40.49;95526.25;5053449;28;20029;-29
2023/04/03 08:53:28;;;;;;;3.67;0.90;;;;;;;16.81;40.28;95552.31;5052495;28;20060;-29
2023/04/03 08:55:55;;;;;;;3.15;0.80;;;;;;;16.79;40.14;95541.09;5040535;28;20021;-30
2023/04/03 08:58:52;;;;;;;6.53;0.73;;;;;;;17.00;39.78;95544.47;5052622;28;20552;-30
2023/04/03 09:01:23;;;;;;;1.52;0.60;;;;;;;16.87;40.45;95553.84;5045518;28;20080;-29
2023/04/03 09:03:48;;;;;;;6.18;0.95;;;;;;;17.02;40.71;95552.94;5045274;28;20030;-29
2023/04/03 09:06:20;;;;;;;2.60;0.70;;;;;;;16.84;40.67;95538.38;5053197;28;20017;-29
2023/04/03 09:08:55;;;;;;;2.05;0.70;;;;;;;16.86;40.65;95535.16;5037252;28;20029;-29
2023/04/03 09:11:58;;;;;;;3.35;0.93;;;;;;;16.86;40.58;95540.63;5053212;28;20032;-29
2023/04/03 09:14:37;;;;;;;2.97;0.73;;;;;;;16.96;39.87;95552.13;5053065;28;20025;-30
2023/04/03 09:17:13;;;;;;;5.30;0.77;;;;;;;16.86;39.95;95546.88;5052493;28;20531;-30
2023/04/03 09:20:09;;;;;;;3.30;0.88;;;;;;;17.10;39.54;95564.94;5052900;28;20154;-29
2023/04/03 09:22:41;;;;;;;4.32;0.80;;;;;;;17.14;39.54;95560.72;5034550;28;20085;-30
2023/04/03 09:25:33;;;;;;;1.57;0.60;;;;;;;17.13;40.03;95551.00;5048185;28;20048;-30
2023/04/03 09:28:00;;;;;;;2.35;0.60;;;;;;;17.14;39.96;95573.69;5048445;28;20492;-29
2023/04/03 09:30:27;;;;;;;4.72;0.80;;;;;;;17.13;39.58;95561.22;5050513;28;20036;-29
2023/04/03 09:32:55;;;;;;;4.57;0.93;;;;;;;17.11;39.60;95582.88;5050023;28;20040;-29
2023/04/03 09:35:31;;;;;;;3.00;0.70;;;;;;;17.27;39.72;95554.81;5048957;28;20025;-29
2023/04/03 09:38:19;;;;;;;4.93;0.90;;;;;;;17.22;39.36;95566.50;5050361;28;20499;-30
2023/04/03 09:40:47;;;;;;;1.83;0.85;;;;;;;17.17;39.10;95570.72;5032190;28;20079;-29
2023/04/03 09:43:33;;;;;;;3.05;0.75;;;;;;;17.18;39.14;95574.22;5048516;28;20032;-29
2023/04/03 09:46:29;;;;;;;4.00;1.17;;;;;;;17.30;39.36;95588.72;5050150;28;20384;-30
2023/04/03 09:49:00;;;;;;;2.17;0.70;;;;;;;17.22;39.41;95591.91;5049922;28;20031;-30
2023/04/03 09:51:28;;;;;;;8.25;0.90;;;;;;;17.08;39.16;95579.09;5048157;28;20048;-29
2023/04/03 09:53:54;;;;;;;6.10;0.75;;;;;;;17.29;38.97;95570.78;5049967;28;20056;-30
2023/04/03 09:56:21;;;;;;;3.85;1.23;;;;;;;17.29;39.02;95584.47;5048522;28;20063;-29
2023/04/03 09:59:15;;;;;;;2.65;0.80;;;;;;;17.27;38.90;95589.69;5050042;28;20131;-29
2023/04/03 10:01:43;;;;;;;2.47;0.52;;;;;;;17.17;38.87;95581.69;5036434;28;20051;-29
2023/04/03 10:04:15;;;;;;;4.65;0.80;;;;;;;17.24;38.17;95591.41;5052207;28;20033;-31
2023/04/03 10:06:52;;;;;;;2.75;1.00;;;;;;;17.30;38.10;95573.03;5050833;28;20049;-30
2023/04/03 10:09:19;;;;;;;2.10;0.73;;;;;;;17.36;38.93;95592.97;5051967;28;20028;-29
2023/04/03 10:11:58;;;;;;;2.40;0.70;;;;;;;17.34;38.08;95579.00;5049732;28;20021;-29
2023/04/03 10:14:23;;;;;;;5.15;0.75;;;;;;;17.42;38.59;95563.59;5051978;28;20021;-29
2023/04/03 10:17:11;;;;;;;2.38;0.80;;;;;;;17.41;38.51;95566.84;5050128;28;20021;-30
2023/04/03 10:19:47;;;;;;;3.28;1.40;;;;;;;17.22;38.56;95563.75;5051682;28;20563;-29
2023/04/03 10:22:59;;;;;;;2.72;1.10;;;;;;;17.32;38.67;95565.03;5028958;28;20384;-29
2023/04/03 10:25:42;;;;;;;7.07;1.00;;;;;;;17.17;38.76;95553.53;5051089;28;20039;-29
2023/04/03 10:28:34;;;;;;;6.63;1.30;;;;;;;17.44;38.74;95549.38;5035026;28;20043;-30
2023/04/03 10:31:07;;;;;;;9.50;1.58;;;;;;;17.34;38.83;95546.13;5047938;28;20027;-29
2023/04/03 10:33:38;;;;;;;2.85;0.80;;;;;;;17.43;38.71;95554.13;5051690;28;20025;-29
2023/04/03 10:36:21;;;;;;;4.30;0.93;;;;;;;17.46;39.04;95550.41;5049450;28;20560;-29
2023/04/03 10:39:27;;;;;;;3.80;0.77;;;;;;;17.42;39.15;95541.69;5041985;28;20021;-30
2023/04/03 10:42:02;;;;;;;3.90;0.93;;;;;;;17.41;39.11;95551.16;5042701;28;20029;-30
2023/04/03 10:44:46;;;;;;;5.05;1.10;;;;;;;17.55;39.18;95544.72;5048631;28;20488;-29
2023/04/03 10:47:29;;;;;;;6.45;1.08;;;;;;;17.54;39.21;95545.97;5047709;28;20048;-29
2023/04/03 10:50:01;;;;;;;4.22;1.10;;;;;;;17.50;38.72;95548.19;5040879;28;20104;-29
2023/04/03 10:52:26;;;;;;;3.38;1.30;;;;;;;17.46;38.26;95535.94;5049278;28;20032;-29
2023/04/03 10:54:56;;;;;;;5.78;1.05;;;;;;;17.45;38.23;95540.69;5051343;28;20025;-29
2023/04/03 10:57:25;;;;;;;4.60;1.20;;;;;;;17.54;37.88;95529.50;5049827;28;20083;-31
2023/04/03 10:59:59;;;;;;;4.72;1.00;;;;;;;17.57;37.65;95531.25;5036724;28;20108;-29
2023/04/03 11:02:32;;;;;;;4.80;1.27;;;;;;;17.65;37.68;95522.59;5048545;28;20127;-29
2023/04/03 11:05:03;;;;;;;6.75;1.17;;;;;;;17.59;37.98;95522.53;5033906;28;20488;-29
2023/04/03 11:07:36;;;;;;;4.57;0.75;;;;;;;17.45;37.59;95515.25;5050454;28;20465;-30
2023/04/03 11:10:10;;;;;;;6.35;1.50;;;;;;;17.65;37.54;95506.88;5037150;28;20012;-30
2023/04/03 11:12:44;;;;;;;3.47;1.17;;;;;;;17.65;37.93;95509.63;5050199;28;20099;-29
2023/04/03 11:15:16;;;;;;;4.28;0.90;;;;;;;17.57;37.76;95503.84;5037491;28;20020;-29
2023/04/03 11:17:53;;;;;;;5.32;1.02;;;;;;;17.64;36.67;95496.41;5049587;28;20032;-30
2023/04/03 11:20:40;;;;;;;4.93;0.85;;;;;;;17.59;37.42;95495.88;5038736;28;20024;-29
2023/04/03 11:23:21;;;;;;;8.35;1.17;;;;;;;17.58;37.05;95499.84;5042149;28;20021;-29
2023/04/03 11:25:52;;;;;;;4.47;0.95;;;;;;;17.69;37.02;95487.44;5050389;28;20031;-29
2023/04/03 11:28:17;;;;;;;3.40;0.90;;;;;;;17.63;37.26;95494.88;5050108;28;20044;-29
2023/04/03 11:30:56;;;;;;;7.70;1.17;;;;;;;17.68;36.76;95492.16;5050813;28;20437;-28
2023/04/03 11:33:30;;;;;;;6.13;1.83;;;;;;;17.56;37.29;95480.41;5049618;28;20056;-28
2023/04/03 11:36:05;;;;;;;4.13;1.02;;;;;;;17.59;36.80;95484.16;5050386;28;20064;-29
2023/04/03 11:38:36;;;;;;;2.95;0.80;;;;;;;17.67;37.04;95481.72;5029262;28;20525;-30
2023/04/03 11:41:06;;;;;;;3.15;0.80;;;;;;;17.83;37.17;95475.50;5042464;28;20103;-28
2023/04/03 11:43:33;;;;;;;4.45;1.13;;;;;;;17.69;36.83;95477.22;5049753;28;20025;-29